createdAt,value
2019-03-25T00:00:02.057Z,4.00
2019-03-25T00:02:32.257Z,4.57
2019-03-25T00:05:01.939Z,5.00
2019-03-25T00:07:32.792Z,4.83
2019-03-25T00:10:03.474Z,5.50
2019-03-25T00:12:35.706Z,6.30
2019-03-25T00:15:07.456Z,4.90
2019-03-25T00:17:37.163Z,4.97
2019-03-25T00:20:07.393Z,4.87
2019-03-25T00:22:39.683Z,4.63
2019-03-25T00:25:12.159Z,4.83
2019-03-25T00:27:43.422Z,4.50
2019-03-25T00:30:15.619Z,4.53
2019-03-25T00:32:46.421Z,4.27
2019-03-25T00:35:16.824Z,4.67
2019-03-25T00:37:47.025Z,4.37
2019-03-25T00:40:17.213Z,4.97
2019-03-25T00:42:50.698Z,4.60
2019-03-25T00:45:20.804Z,4.63
2019-03-25T00:47:51.677Z,4.77
2019-03-25T00:50:23.021Z,4.13
2019-03-25T00:52:52.927Z,4.80
2019-03-25T00:55:25.326Z,3.90
2019-03-25T00:57:57.743Z,4.00
2019-03-25T01:00:27.601Z,4.03
2019-03-25T01:02:58.295Z,4.53
2019-03-25T01:05:31.114Z,4.53
2019-03-25T01:08:02.249Z,4.40
2019-03-25T01:10:33.409Z,4.43
2019-03-25T01:13:04.818Z,4.50
2019-03-25T01:15:35.980Z,4.70
2019-03-25T01:18:16.388Z,4.70
2019-03-25T01:20:39.177Z,4.77
2019-03-25T01:23:08.961Z,4.80
2019-03-25T01:25:38.950Z,4.93
2019-03-25T01:28:09.871Z,4.60
2019-03-25T01:30:43.945Z,5.40
2019-03-25T01:33:14.225Z,6.17
2019-03-25T01:35:45.056Z,5.90
2019-03-25T01:38:15.697Z,5.87
2019-03-25T01:40:47.434Z,5.67
2019-03-25T01:43:17.622Z,6.10
2019-03-25T01:45:47.733Z,6.63
2019-03-25T01:48:18.014Z,5.80
2019-03-25T01:50:47.918Z,6.80
2019-03-25T01:53:20.525Z,30.77
2019-03-25T01:55:52.069Z,6.70
2019-03-25T01:58:21.949Z,6.50
2019-03-25T02:00:52.033Z,6.50
2019-03-25T02:03:22.234Z,6.90
2019-03-25T02:05:52.421Z,6.50
2019-03-25T02:08:23.282Z,7.00
2019-03-25T02:10:53.968Z,7.60
2019-03-25T02:13:24.985Z,8.10
2019-03-25T02:15:57.177Z,7.27
2019-03-25T02:18:27.912Z,7.47
2019-03-25T02:20:58.919Z,7.40
2019-03-25T02:23:30.994Z,7.90
2019-03-25T02:26:02.763Z,6.23
2019-03-25T02:28:34.798Z,6.57
2019-03-25T02:31:04.948Z,6.80
2019-03-25T02:33:37.694Z,7.40
2019-03-25T02:36:08.670Z,7.10
2019-03-25T02:38:39.685Z,8.50
2019-03-25T02:41:10.767Z,7.40
2019-03-25T02:43:41.041Z,6.70
2019-03-25T02:46:13.439Z,7.90
2019-03-25T02:48:44.167Z,8.17
2019-03-25T02:51:14.243Z,7.40
2019-03-25T02:53:46.624Z,7.77
2019-03-25T02:56:17.050Z,7.00
2019-03-25T02:58:47.770Z,7.40
2019-03-25T03:01:21.738Z,7.50
2019-03-25T03:03:53.833Z,7.50
2019-03-25T03:06:24.112Z,6.60
2019-03-25T03:08:55.034Z,7.43
2019-03-25T03:11:25.778Z,7.90
2019-03-25T03:13:56.462Z,6.87
2019-03-25T03:16:26.832Z,7.60
2019-03-25T03:18:56.670Z,7.37
2019-03-25T03:21:26.726Z,7.60
2019-03-25T03:23:57.567Z,7.97
2019-03-25T03:26:27.652Z,6.90
2019-03-25T03:28:57.846Z,7.03
2019-03-25T03:31:28.048Z,7.37
2019-03-25T03:33:59.178Z,7.77
2019-03-25T03:36:29.268Z,8.90
2019-03-25T03:39:00.958Z,7.23
2019-03-25T03:41:31.142Z,6.77
2019-03-25T03:44:02.578Z,6.83
2019-03-25T03:46:35.129Z,6.10
2019-03-25T03:49:05.750Z,5.80
2019-03-25T03:51:35.890Z,6.43
2019-03-25T03:54:07.863Z,5.70
2019-03-25T03:56:38.358Z,6.07
2019-03-25T03:59:11.727Z,6.40
2019-03-25T04:01:41.804Z,6.83
2019-03-25T04:04:13.249Z,6.10
2019-03-25T04:06:44.102Z,6.80
2019-03-25T04:09:13.883Z,6.63
2019-03-25T04:11:45.014Z,6.17
2019-03-25T04:14:14.823Z,6.70
2019-03-25T04:16:47.104Z,7.13
2019-03-25T04:19:17.055Z,5.97
2019-03-25T04:21:47.830Z,6.00
2019-03-25T04:24:18.479Z,5.60
2019-03-25T04:26:49.149Z,5.57
2019-03-25T04:29:20.214Z,4.93
2019-03-25T04:31:51.367Z,5.27
2019-03-25T04:34:22.326Z,5.53
2019-03-25T04:36:54.983Z,5.70
2019-03-25T04:39:26.010Z,5.47
2019-03-25T04:41:57.196Z,5.87
2019-03-25T04:44:29.265Z,5.43
2019-03-25T04:47:00.069Z,5.60
2019-03-25T04:49:30.787Z,5.97
2019-03-25T04:52:01.506Z,5.43
2019-03-25T04:54:32.421Z,4.90
2019-03-25T04:57:05.256Z,5.07
2019-03-25T04:59:37.102Z,4.97
2019-03-25T05:02:08.861Z,4.53
2019-03-25T05:04:39.990Z,4.20
2019-03-25T05:07:10.737Z,4.43
2019-03-25T05:09:41.680Z,4.80
2019-03-25T05:12:12.882Z,3.40
2019-03-25T05:14:45.734Z,3.63
2019-03-25T05:17:16.561Z,3.87
2019-03-25T05:19:48.113Z,3.70
2019-03-25T05:22:20.807Z,3.33
2019-03-25T05:24:51.008Z,3.30
2019-03-25T05:27:24.197Z,4.40
2019-03-25T05:29:56.944Z,3.77
2019-03-25T05:32:27.930Z,3.73
2019-03-25T05:34:59.098Z,3.97
2019-03-25T05:37:29.319Z,4.90
2019-03-25T05:40:01.800Z,4.13
2019-03-25T05:42:33.030Z,4.10
2019-03-25T05:45:04.275Z,3.90
2019-03-25T05:47:33.744Z,4.93
2019-03-25T05:50:05.555Z,4.40
2019-03-25T05:52:37.862Z,4.37
2019-03-25T05:55:09.645Z,5.07
2019-03-25T05:57:39.431Z,5.60
2019-03-25T06:00:10.194Z,4.83
2019-03-25T06:02:39.925Z,4.23
2019-03-25T06:05:11.241Z,4.77
2019-03-25T06:07:41.458Z,4.97
2019-03-25T06:10:11.941Z,4.63
2019-03-25T06:12:42.585Z,4.67
2019-03-25T06:15:13.126Z,4.57
2019-03-25T06:17:45.741Z,4.10
2019-03-25T06:20:18.005Z,4.07
2019-03-25T06:22:47.873Z,4.23
2019-03-25T06:25:18.878Z,3.90
2019-03-25T06:27:50.237Z,4.07
2019-03-25T06:30:21.466Z,4.30
2019-03-25T06:32:53.066Z,4.87
2019-03-25T06:35:24.087Z,4.63
2019-03-25T06:37:53.944Z,4.63
2019-03-25T06:40:23.737Z,4.73
2019-03-25T06:42:55.726Z,6.03
2019-03-25T06:45:29.065Z,5.33
2019-03-25T06:48:02.395Z,4.57
2019-03-25T06:50:31.745Z,5.53
2019-03-25T06:53:01.815Z,4.40
2019-03-25T06:55:32.939Z,4.30
2019-03-25T06:58:03.135Z,6.10
2019-03-25T07:00:33.974Z,5.20
2019-03-25T07:03:06.366Z,4.37
2019-03-25T07:05:36.146Z,5.70
2019-03-25T07:08:08.869Z,4.83
2019-03-25T07:10:38.741Z,5.33
2019-03-25T07:13:09.477Z,5.50
2019-03-25T07:15:44.209Z,4.93
2019-03-25T07:18:18.029Z,4.87
2019-03-25T07:20:49.277Z,6.27
2019-03-25T07:23:20.453Z,5.97
2019-03-25T07:25:53.277Z,4.53
2019-03-25T07:28:23.926Z,5.13
2019-03-25T07:30:55.757Z,5.30
2019-03-25T07:33:25.849Z,5.23
2019-03-25T07:35:56.051Z,4.90
2019-03-25T07:38:29.208Z,5.40
2019-03-25T07:41:00.029Z,5.17
2019-03-25T07:43:30.044Z,5.23
2019-03-25T07:45:59.933Z,4.83
2019-03-25T07:48:37.850Z,4.27
2019-03-25T07:51:09.435Z,5.40
2019-03-25T07:53:43.029Z,4.10
2019-03-25T07:56:13.711Z,5.57
2019-03-25T07:58:45.427Z,4.50
2019-03-25T08:01:15.169Z,4.50
2019-03-25T08:03:46.012Z,4.40
2019-03-25T08:06:17.127Z,3.43
2019-03-25T08:08:48.373Z,4.37
2019-03-25T08:11:19.102Z,3.80
2019-03-25T08:13:50.752Z,3.37
2019-03-25T08:16:22.166Z,3.27
2019-03-25T08:18:51.601Z,2.70
2019-03-25T08:21:25.129Z,4.77
2019-03-25T08:23:55.377Z,3.43
2019-03-25T08:26:27.627Z,2.87
2019-03-25T08:29:00.301Z,3.40
2019-03-25T08:31:32.721Z,4.10
2019-03-25T08:34:05.034Z,3.37
2019-03-25T08:36:38.520Z,3.43
2019-03-25T08:39:09.117Z,3.43
2019-03-25T08:41:39.520Z,3.47
2019-03-25T08:44:09.502Z,3.87
2019-03-25T08:46:39.489Z,3.90
2019-03-25T08:49:12.052Z,3.87
2019-03-25T08:51:42.831Z,4.17
2019-03-25T08:54:14.055Z,4.20
2019-03-25T08:56:45.759Z,3.70
2019-03-25T08:59:16.817Z,3.60
2019-03-25T09:01:47.883Z,3.73
2019-03-25T09:04:18.105Z,3.30
2019-03-25T09:06:48.108Z,4.10
2019-03-25T09:09:19.274Z,2.47
2019-03-25T09:11:51.532Z,3.03
2019-03-25T09:14:22.022Z,2.70
2019-03-25T09:16:53.634Z,3.10
2019-03-25T09:19:24.695Z,3.37
2019-03-25T09:21:54.168Z,3.67
2019-03-25T09:24:24.858Z,4.37
2019-03-25T09:26:57.490Z,3.90
2019-03-25T09:29:28.927Z,3.77
2019-03-25T09:31:59.748Z,3.60
2019-03-25T09:34:30.233Z,3.27
2019-03-25T09:37:00.153Z,3.97
2019-03-25T09:39:31.250Z,3.17
2019-03-25T09:42:01.454Z,4.00
2019-03-25T09:44:33.997Z,3.27
2019-03-25T09:47:05.073Z,2.83
2019-03-25T09:49:38.753Z,3.33
2019-03-25T09:52:09.561Z,4.23
2019-03-25T09:54:39.448Z,3.10
2019-03-25T09:57:10.156Z,3.50
2019-03-25T09:59:42.466Z,4.13
2019-03-25T10:02:13.266Z,3.73
2019-03-25T10:04:46.631Z,2.83
2019-03-25T10:07:21.658Z,3.23
2019-03-25T10:09:52.429Z,3.47
2019-03-25T10:12:23.473Z,2.67
2019-03-25T10:14:54.237Z,2.33
2019-03-25T10:17:24.890Z,2.30
2019-03-25T10:19:54.977Z,2.87
2019-03-25T10:22:28.778Z,2.43
2019-03-25T10:24:59.891Z,2.23
2019-03-25T10:27:30.053Z,2.20
2019-03-25T10:30:00.473Z,2.07
2019-03-25T10:32:30.453Z,2.60
2019-03-25T10:35:01.317Z,2.40
2019-03-25T10:37:32.298Z,2.60
2019-03-25T10:40:02.514Z,2.40
2019-03-25T10:42:32.701Z,2.80
2019-03-25T10:45:05.637Z,2.50
2019-03-25T10:47:37.894Z,2.90
2019-03-25T10:50:07.796Z,2.60
2019-03-25T10:52:37.078Z,2.70
2019-03-25T10:55:09.174Z,3.33
2019-03-25T10:57:39.845Z,2.77
2019-03-25T11:00:13.014Z,2.70
2019-03-25T11:02:46.006Z,3.60
2019-03-25T11:05:16.975Z,4.00
2019-03-25T11:07:48.032Z,3.77
2019-03-25T11:10:19.545Z,3.80
2019-03-25T11:12:49.498Z,3.27
2019-03-25T11:15:21.584Z,3.63
2019-03-25T11:17:52.386Z,3.40
2019-03-25T11:20:23.097Z,2.77
2019-03-25T11:22:54.015Z,3.07
2019-03-25T11:25:26.981Z,2.50
2019-03-25T11:27:58.934Z,2.70
2019-03-25T11:30:50.946Z,2.40
2019-03-25T11:33:22.100Z,2.87
2019-03-25T11:35:52.646Z,2.73
2019-03-25T11:38:23.098Z,2.63
2019-03-25T11:40:55.473Z,2.70
2019-03-25T11:43:25.794Z,3.03
2019-03-25T11:45:56.656Z,3.60
2019-03-25T11:48:27.667Z,2.93
2019-03-25T11:50:59.653Z,3.10
2019-03-25T11:53:33.036Z,2.57
2019-03-25T11:56:03.094Z,2.87
2019-03-25T11:58:34.199Z,3.23
2019-03-25T12:01:05.298Z,4.00
2019-03-25T12:03:35.729Z,3.70
2019-03-25T12:06:06.597Z,3.80
2019-03-25T12:08:37.261Z,3.57
2019-03-25T12:11:08.012Z,2.97
2019-03-25T12:13:37.769Z,3.13
2019-03-25T12:16:07.849Z,3.30
2019-03-25T12:18:38.376Z,3.50
2019-03-25T12:21:09.377Z,3.33
2019-03-25T12:23:40.150Z,3.90
2019-03-25T12:26:10.509Z,4.03
2019-03-25T12:28:41.968Z,4.53
2019-03-25T12:31:13.663Z,5.83
2019-03-25T12:33:44.785Z,7.87
2019-03-25T12:36:14.662Z,7.50
2019-03-25T12:38:45.377Z,6.83
2019-03-25T12:41:17.363Z,4.67
2019-03-25T12:43:47.699Z,4.87
2019-03-25T12:46:18.902Z,4.30
2019-03-25T12:48:49.829Z,3.57
2019-03-25T12:51:20.565Z,3.33
2019-03-25T12:53:51.481Z,3.13
2019-03-25T12:56:22.277Z,3.27
2019-03-25T12:58:56.466Z,2.30
2019-03-25T13:01:28.210Z,2.60
2019-03-25T13:03:59.225Z,2.93
2019-03-25T13:06:29.973Z,2.60
2019-03-25T13:09:00.214Z,2.40
2019-03-25T13:11:30.447Z,2.60
2019-03-25T13:14:01.291Z,2.43
2019-03-25T13:16:33.071Z,2.50
2019-03-25T13:19:04.201Z,2.57
2019-03-25T13:21:35.529Z,2.77
2019-03-25T13:24:05.421Z,3.50
2019-03-25T13:26:35.197Z,3.13
2019-03-25T13:29:05.705Z,2.87
2019-03-25T13:31:35.789Z,3.13
2019-03-25T13:34:06.951Z,2.77
2019-03-25T13:36:38.262Z,3.40
2019-03-25T13:39:09.503Z,3.63
2019-03-25T13:41:40.337Z,3.50
2019-03-25T13:44:11.361Z,3.70
2019-03-25T13:46:41.033Z,3.00
2019-03-25T13:49:12.705Z,2.83
2019-03-25T13:51:43.529Z,3.20
2019-03-25T13:54:13.622Z,3.10
2019-03-25T13:56:44.782Z,3.43
2019-03-25T13:59:14.785Z,4.40
2019-03-25T14:01:47.181Z,4.00
2019-03-25T14:04:18.469Z,3.83
2019-03-25T14:06:49.309Z,4.13
2019-03-25T14:09:20.325Z,4.83
2019-03-25T14:11:51.499Z,4.47
2019-03-25T14:14:23.344Z,3.50
2019-03-25T14:16:56.071Z,3.10
2019-03-25T14:19:29.183Z,3.27
2019-03-25T14:21:59.689Z,3.47
2019-03-25T14:24:29.776Z,3.27
2019-03-25T14:27:02.597Z,4.07
2019-03-25T14:29:32.881Z,3.40
2019-03-25T14:32:02.773Z,3.60
2019-03-25T14:34:44.225Z,3.97
2019-03-25T14:37:07.896Z,3.37
2019-03-25T14:39:40.690Z,3.20
2019-03-25T14:42:11.866Z,3.03
2019-03-25T14:44:42.102Z,3.53
2019-03-25T14:47:12.229Z,3.50
2019-03-25T14:49:43.326Z,3.83
2019-03-25T14:52:16.374Z,4.13
2019-03-25T14:54:47.068Z,6.10
2019-03-25T14:57:18.098Z,3.97
2019-03-25T14:59:50.227Z,4.03
2019-03-25T15:02:21.037Z,3.60
2019-03-25T15:04:51.957Z,3.57
2019-03-25T15:07:23.085Z,3.63
2019-03-25T15:09:54.123Z,4.00
2019-03-25T15:12:25.238Z,4.60
2019-03-25T15:14:56.689Z,4.07
2019-03-25T15:17:27.402Z,3.80
2019-03-25T15:19:58.163Z,5.00
2019-03-25T15:22:30.611Z,5.80
2019-03-25T15:25:00.410Z,5.00
2019-03-25T15:27:32.785Z,7.10
2019-03-25T15:30:03.818Z,5.60
2019-03-25T15:32:36.366Z,5.40
2019-03-25T15:35:09.665Z,4.30
2019-03-25T15:37:41.513Z,3.47
2019-03-25T15:40:12.909Z,3.90
2019-03-25T15:42:42.645Z,4.00
2019-03-25T15:45:12.743Z,4.50
2019-03-25T15:47:47.140Z,4.23
2019-03-25T15:50:16.706Z,4.17
2019-03-25T15:52:47.903Z,4.83
2019-03-25T15:55:20.396Z,4.40
2019-03-25T15:57:50.629Z,4.20
2019-03-25T16:00:22.473Z,5.27
2019-03-25T16:02:53.502Z,4.73
2019-03-25T16:05:23.812Z,4.87
2019-03-25T16:07:54.009Z,4.13
2019-03-25T16:10:23.899Z,4.17
2019-03-25T16:12:54.908Z,4.07
2019-03-25T16:15:30.331Z,3.97
2019-03-25T16:18:02.106Z,4.17
2019-03-25T16:20:32.861Z,4.17
2019-03-25T16:23:03.981Z,3.80
2019-03-25T16:25:34.817Z,4.10
2019-03-25T16:28:06.713Z,4.30
2019-03-25T16:30:37.905Z,4.20
2019-03-25T16:33:08.570Z,4.53
2019-03-25T16:35:39.662Z,4.73
2019-03-25T16:38:10.502Z,3.60
2019-03-25T16:40:42.895Z,3.13
2019-03-25T16:43:13.696Z,3.10
2019-03-25T16:45:45.237Z,2.87
2019-03-25T16:48:16.381Z,2.90
2019-03-25T16:50:47.495Z,2.80
2019-03-25T16:53:18.664Z,3.00
2019-03-25T16:55:50.548Z,2.57
2019-03-25T16:58:20.293Z,2.37
2019-03-25T17:00:51.310Z,2.13
2019-03-25T17:03:22.590Z,2.13
2019-03-25T17:05:53.389Z,2.30
2019-03-25T17:08:24.414Z,2.50
2019-03-25T17:10:56.809Z,2.50
2019-03-25T17:13:27.010Z,2.47
2019-03-25T17:15:57.881Z,2.20
2019-03-25T17:18:27.557Z,2.57
2019-03-25T17:20:57.300Z,2.40
2019-03-25T17:23:28.303Z,2.60
2019-03-25T17:25:58.737Z,2.40
2019-03-25T17:28:31.414Z,2.40
2019-03-25T17:31:03.129Z,2.57
2019-03-25T17:33:36.039Z,2.20
2019-03-25T17:36:07.229Z,2.80
2019-03-25T17:38:38.481Z,3.03
2019-03-25T17:41:11.285Z,2.30
2019-03-25T17:43:44.014Z,2.50
2019-03-25T17:46:15.149Z,2.00
2019-03-25T17:48:45.057Z,2.70
2019-03-25T17:51:16.309Z,3.10
2019-03-25T17:53:47.520Z,3.50
2019-03-25T17:56:18.622Z,4.40
2019-03-25T17:58:49.460Z,3.80
2019-03-25T18:01:20.163Z,3.50
2019-03-25T18:03:50.473Z,2.87
2019-03-25T18:06:22.241Z,2.90
2019-03-25T18:08:55.173Z,2.90
2019-03-25T18:11:25.437Z,3.13
2019-03-25T18:13:57.942Z,3.00
2019-03-25T18:16:27.737Z,2.90
2019-03-25T18:18:58.482Z,2.63
2019-03-25T18:21:30.091Z,3.20
2019-03-25T18:24:00.408Z,2.53
2019-03-25T18:26:30.606Z,2.80
2019-03-25T18:29:01.429Z,2.63
2019-03-25T18:31:42.979Z,2.90
2019-03-25T18:34:05.677Z,2.30
2019-03-25T18:36:35.596Z,2.70
2019-03-25T18:39:08.473Z,2.93
2019-03-25T18:41:39.709Z,2.47
2019-03-25T18:44:10.720Z,2.73
2019-03-25T18:46:40.641Z,2.70
2019-03-25T18:49:11.361Z,3.13
2019-03-25T18:51:42.086Z,2.47
2019-03-25T18:54:13.131Z,2.90
2019-03-25T18:56:45.214Z,3.47
2019-03-25T18:59:16.308Z,3.13
2019-03-25T19:01:54.341Z,3.50
2019-03-25T19:04:19.338Z,4.27
2019-03-25T19:06:49.246Z,3.77
2019-03-25T19:09:20.437Z,2.93
2019-03-25T19:11:50.653Z,3.70
2019-03-25T19:14:23.119Z,3.27
2019-03-25T19:16:53.890Z,3.87
2019-03-25T19:19:24.924Z,4.00
2019-03-25T19:21:55.755Z,4.00
2019-03-25T19:24:25.518Z,3.97
2019-03-25T19:26:56.215Z,4.57
2019-03-25T19:29:26.973Z,4.97
2019-03-25T19:32:06.121Z,4.87
2019-03-25T19:34:29.925Z,5.20
2019-03-25T19:37:00.158Z,4.63
2019-03-25T19:39:30.433Z,4.93
2019-03-25T19:42:01.295Z,4.90
2019-03-25T19:44:32.443Z,5.07
2019-03-25T19:47:04.707Z,3.90
2019-03-25T19:49:35.414Z,4.53
2019-03-25T19:52:09.487Z,4.53
2019-03-25T19:54:39.141Z,5.00
2019-03-25T19:57:10.169Z,4.47
2019-03-25T19:59:41.299Z,3.87
2019-03-25T20:02:18.935Z,4.07
2019-03-25T20:04:46.353Z,4.73
2019-03-25T20:07:16.617Z,4.90
2019-03-25T20:09:47.903Z,4.50
2019-03-25T20:12:18.148Z,4.17
2019-03-25T20:14:48.950Z,5.00
2019-03-25T20:17:19.540Z,5.50
2019-03-25T20:19:51.116Z,5.33
2019-03-25T20:22:20.954Z,4.73
2019-03-25T20:24:52.007Z,4.07
2019-03-25T20:27:23.009Z,4.70
2019-03-25T20:29:54.031Z,4.10
2019-03-25T20:32:31.512Z,3.33
2019-03-25T20:34:56.708Z,3.30
2019-03-25T20:37:27.384Z,4.27
2019-03-25T20:39:57.519Z,3.57
2019-03-25T20:42:27.711Z,4.10
2019-03-25T20:44:57.643Z,5.57
2019-03-25T20:47:31.842Z,4.80
2019-03-25T20:50:01.959Z,6.23
2019-03-25T20:52:32.745Z,6.63
2019-03-25T20:55:03.807Z,6.60
2019-03-25T20:57:33.887Z,6.60
2019-03-25T21:00:04.079Z,7.17
2019-03-25T21:02:44.413Z,6.57
2019-03-25T21:05:06.722Z,6.07
2019-03-25T21:07:37.657Z,4.80
2019-03-25T21:10:11.682Z,4.70
2019-03-25T21:12:42.795Z,4.07
2019-03-25T21:15:14.004Z,3.60
2019-03-25T21:17:46.429Z,4.20
2019-03-25T21:20:15.833Z,4.10
2019-03-25T21:22:45.602Z,4.80
2019-03-25T21:25:14.585Z,4.77
2019-03-25T21:27:44.809Z,4.97
2019-03-25T21:30:16.018Z,5.27
2019-03-25T21:32:57.498Z,5.67
2019-03-25T21:35:18.758Z,5.77
2019-03-25T21:37:51.309Z,3.93
2019-03-25T21:40:22.193Z,4.60
2019-03-25T21:42:52.693Z,3.73
2019-03-25T21:45:23.938Z,4.50
2019-03-25T21:47:54.239Z,4.13
2019-03-25T21:50:25.374Z,3.50
2019-03-25T21:52:56.153Z,3.60
2019-03-25T21:55:28.276Z,3.50
2019-03-25T21:57:58.075Z,4.00
2019-03-25T22:00:27.984Z,4.20
2019-03-25T22:03:11.017Z,4.73
2019-03-25T22:05:29.676Z,4.47
2019-03-25T22:08:00.813Z,4.60
2019-03-25T22:10:30.829Z,4.00
2019-03-25T22:13:03.245Z,4.97
2019-03-25T22:15:34.535Z,3.90
2019-03-25T22:18:04.741Z,5.37
2019-03-25T22:20:35.581Z,4.10
2019-03-25T22:23:07.564Z,4.53
2019-03-25T22:25:41.017Z,4.30
2019-03-25T22:28:12.049Z,3.90
2019-03-25T22:30:42.765Z,3.80
2019-03-25T22:33:25.196Z,4.30
2019-03-25T22:35:45.837Z,5.97
2019-03-25T22:38:15.737Z,4.37
2019-03-25T22:40:46.669Z,4.13
2019-03-25T22:43:18.146Z,3.60
2019-03-25T22:45:48.313Z,3.73
2019-03-25T22:48:17.678Z,3.80
2019-03-25T22:50:50.306Z,3.70
2019-03-25T22:53:21.347Z,3.93
2019-03-25T22:55:52.321Z,3.67
2019-03-25T22:58:22.109Z,4.23
2019-03-25T23:00:52.826Z,4.20
2019-03-25T23:03:22.841Z,3.90
2019-03-25T23:05:56.677Z,4.30
2019-03-25T23:08:26.595Z,4.07
2019-03-25T23:10:57.265Z,3.80
2019-03-25T23:13:27.380Z,3.70
2019-03-25T23:15:57.655Z,3.80
2019-03-25T23:18:27.849Z,3.87
2019-03-25T23:20:57.766Z,5.00
2019-03-25T23:23:27.934Z,3.80
2019-03-25T23:25:57.829Z,3.80
2019-03-25T23:28:28.773Z,3.20
2019-03-25T23:30:59.614Z,3.90
2019-03-25T23:33:29.658Z,3.33
2019-03-25T23:36:00.734Z,3.97
2019-03-25T23:38:30.599Z,3.60
2019-03-25T23:41:01.825Z,3.70
2019-03-25T23:43:33.332Z,3.10
2019-03-25T23:46:03.675Z,2.93
2019-03-25T23:48:35.540Z,3.67
2019-03-25T23:51:08.069Z,2.97
2019-03-25T23:53:37.921Z,3.20
2019-03-25T23:56:08.849Z,3.27
2019-03-25T23:58:40.846Z,3.33
